createdAt,value
2023-03-06T00:01:18.771Z,7.68
2023-03-06T00:05:24.739Z,7.10
2023-03-06T00:07:29.083Z,8.38
2023-03-06T00:09:31.993Z,9.95
2023-03-06T00:11:34.802Z,22.15
2023-03-06T00:13:39.026Z,34.47
2023-03-06T00:15:42.248Z,27.45
2023-03-06T00:17:45.242Z,25.02
2023-03-06T00:19:48.343Z,29.35
2023-03-06T00:21:51.620Z,24.20
2023-03-06T00:23:56.008Z,17.67
2023-03-06T00:25:59.014Z,11.70
2023-03-06T00:28:01.944Z,11.43
2023-03-06T00:30:06.352Z,10.40
2023-03-06T00:32:10.363Z,10.43
2023-03-06T00:34:13.531Z,10.20
2023-03-06T00:36:16.400Z,9.70
2023-03-06T00:38:19.480Z,9.68
2023-03-06T00:40:24.198Z,11.27
2023-03-06T00:42:27.142Z,17.83
2023-03-06T00:44:30.040Z,24.80
2023-03-06T00:46:33.061Z,20.35
2023-03-06T00:48:36.150Z,17.58
2023-03-06T00:50:39.216Z,15.65
2023-03-06T00:52:42.404Z,13.48
2023-03-06T00:54:45.320Z,13.00
2023-03-06T00:56:49.751Z,13.38
2023-03-06T00:58:52.780Z,13.23
2023-03-06T01:00:55.721Z,13.23
2023-03-06T01:02:58.828Z,12.23
2023-03-06T01:05:01.948Z,13.10
2023-03-06T01:07:04.869Z,12.80
2023-03-06T01:09:07.857Z,13.65
2023-03-06T01:11:11.118Z,14.18
2023-03-06T01:13:15.586Z,15.60
2023-03-06T01:15:18.824Z,14.82
2023-03-06T01:17:21.777Z,14.55
2023-03-06T01:19:24.676Z,13.73
2023-03-06T01:21:27.519Z,14.43
2023-03-06T01:23:31.014Z,14.23
2023-03-06T01:25:33.853Z,13.57
2023-03-06T01:27:36.876Z,13.45
2023-03-06T01:29:41.648Z,13.23
2023-03-06T01:31:44.958Z,12.63
2023-03-06T01:33:47.804Z,13.68
2023-03-06T01:35:51.320Z,12.00
2023-03-06T01:37:54.376Z,12.18
2023-03-06T01:39:57.415Z,11.55
2023-03-06T01:42:00.357Z,10.50
2023-03-06T01:44:03.276Z,9.35
2023-03-06T01:46:25.980Z,8.88
2023-03-06T01:48:29.550Z,8.25
2023-03-06T01:50:32.489Z,8.50
2023-03-06T01:52:40.412Z,8.07
2023-03-06T01:54:47.369Z,8.90
2023-03-06T01:56:53.101Z,8.18
2023-03-06T01:58:56.557Z,8.55
2023-03-06T02:00:59.826Z,8.80
2023-03-06T02:03:08.688Z,8.98
2023-03-06T02:05:14.167Z,8.32
2023-03-06T02:07:20.852Z,7.68
2023-03-06T02:09:23.850Z,8.38
2023-03-06T02:11:29.787Z,8.20
2023-03-06T02:13:32.973Z,8.18
2023-03-06T02:15:35.832Z,9.23
2023-03-06T02:17:39.123Z,8.07
2023-03-06T02:19:52.739Z,8.10
2023-03-06T02:21:56.190Z,8.45
2023-03-06T02:24:13.441Z,8.40
2023-03-06T02:26:18.615Z,8.63
2023-03-06T02:28:23.172Z,7.30
2023-03-06T02:30:27.966Z,8.07
2023-03-06T02:32:30.890Z,7.73
2023-03-06T02:34:57.056Z,7.70
2023-03-06T02:37:03.054Z,8.25
2023-03-06T02:39:06.773Z,7.95
2023-03-06T02:41:09.822Z,8.05
2023-03-06T02:43:17.220Z,7.65
2023-03-06T02:45:25.431Z,7.78
2023-03-06T02:47:28.837Z,7.47
2023-03-06T02:49:31.779Z,7.97
2023-03-06T02:51:34.819Z,7.75
2023-03-06T02:53:37.659Z,6.97
2023-03-06T02:55:40.688Z,7.43
2023-03-06T02:57:43.790Z,6.72
2023-03-06T02:59:48.317Z,6.68
2023-03-06T03:01:51.873Z,7.03
2023-03-06T03:03:55.069Z,7.50
2023-03-06T03:05:57.968Z,7.20
2023-03-06T03:08:05.729Z,6.55
2023-03-06T03:10:10.594Z,6.82
2023-03-06T03:12:13.526Z,6.70
2023-03-06T03:14:17.075Z,6.18
2023-03-06T03:18:26.462Z,5.93
2023-03-06T03:20:29.817Z,6.50
2023-03-06T03:22:32.728Z,6.47
2023-03-06T03:24:35.705Z,6.15
2023-03-06T03:26:39.241Z,5.93
2023-03-06T03:28:50.865Z,6.22
2023-03-06T03:30:56.185Z,6.95
2023-03-06T03:33:00.779Z,7.05
2023-03-06T03:35:04.120Z,6.85
2023-03-06T03:37:08.082Z,8.40
2023-03-06T03:39:11.098Z,9.18
2023-03-06T03:41:14.414Z,8.25
2023-03-06T03:43:18.358Z,8.25
2023-03-06T03:45:22.575Z,9.07
2023-03-06T03:47:25.538Z,8.77
2023-03-06T03:49:29.991Z,9.73
2023-03-06T03:51:34.631Z,8.43
2023-03-06T03:53:37.762Z,9.75
2023-03-06T03:55:41.045Z,9.10
2023-03-06T03:57:44.117Z,9.93
2023-03-06T03:59:48.006Z,9.65
2023-03-06T04:02:17.484Z,9.45
2023-03-06T04:04:36.168Z,9.55
2023-03-06T04:06:39.626Z,9.02
2023-03-06T04:08:42.881Z,9.80
2023-03-06T04:10:45.836Z,9.15
2023-03-06T04:12:50.955Z,9.45
2023-03-06T04:14:54.020Z,8.95
2023-03-06T04:16:57.949Z,8.15
2023-03-06T04:19:01.697Z,8.70
2023-03-06T04:21:06.497Z,9.20
2023-03-06T04:23:10.020Z,9.68
2023-03-06T04:25:14.076Z,9.13
2023-03-06T04:27:17.420Z,9.43
2023-03-06T04:29:20.375Z,8.90
2023-03-06T04:31:23.426Z,7.22
2023-03-06T04:33:26.439Z,8.00
2023-03-06T04:35:30.200Z,8.30
2023-03-06T04:37:39.920Z,7.30
2023-03-06T04:39:43.000Z,7.15
2023-03-06T04:41:45.945Z,7.25
2023-03-06T04:43:49.315Z,7.45
2023-03-06T04:45:52.249Z,6.50
2023-03-06T04:47:55.831Z,6.38
2023-03-06T04:49:58.771Z,5.82
2023-03-06T04:52:01.675Z,6.05
2023-03-06T04:54:06.300Z,6.32
2023-03-06T04:56:09.725Z,6.07
2023-03-06T04:58:14.263Z,6.05
2023-03-06T05:00:20.123Z,5.90
2023-03-06T05:02:24.620Z,6.18
2023-03-06T05:04:27.789Z,5.45
2023-03-06T05:06:30.702Z,5.47
2023-03-06T05:08:33.673Z,5.70
2023-03-06T05:10:37.997Z,6.20
2023-03-06T05:12:41.102Z,6.07
2023-03-06T05:14:46.663Z,5.70
2023-03-06T05:16:50.996Z,5.90
2023-03-06T05:18:53.962Z,6.50
2023-03-06T05:20:59.885Z,6.32
2023-03-06T05:23:02.836Z,6.22
2023-03-06T05:25:06.845Z,6.70
2023-03-06T05:27:11.348Z,5.90
2023-03-06T05:29:14.264Z,6.25
2023-03-06T05:31:17.554Z,6.97
2023-03-06T05:33:20.515Z,6.45
2023-03-06T05:35:24.286Z,6.68
2023-03-06T05:37:27.320Z,7.57
2023-03-06T05:39:30.528Z,5.70
2023-03-06T05:41:33.579Z,7.50
2023-03-06T05:43:38.010Z,7.60
2023-03-06T05:45:41.616Z,7.45
2023-03-06T05:47:44.610Z,7.78
2023-03-06T05:49:47.638Z,7.97
2023-03-06T05:51:50.556Z,8.45
2023-03-06T05:53:53.574Z,8.40
2023-03-06T05:55:58.239Z,9.15
2023-03-06T05:58:01.242Z,9.00
2023-03-06T06:00:07.386Z,8.13
2023-03-06T06:02:16.009Z,8.80
2023-03-06T06:04:19.179Z,9.23
2023-03-06T06:06:22.319Z,9.70
2023-03-06T06:08:25.286Z,9.50
2023-03-06T06:10:28.218Z,9.30
2023-03-06T06:12:31.649Z,9.48
2023-03-06T06:14:35.378Z,9.27
2023-03-06T06:16:39.757Z,10.05
2023-03-06T06:18:42.858Z,10.35
2023-03-06T06:20:45.837Z,9.68
2023-03-06T06:22:48.816Z,10.75
2023-03-06T06:24:51.887Z,9.65
2023-03-06T06:26:56.548Z,10.43
2023-03-06T06:29:00.344Z,9.90
2023-03-06T06:31:09.898Z,9.77
2023-03-06T06:33:14.278Z,10.68
2023-03-06T06:35:17.446Z,11.15
2023-03-06T06:37:20.404Z,9.98
2023-03-06T06:39:25.017Z,10.38
2023-03-06T06:41:50.539Z,10.77
2023-03-06T06:43:51.870Z,11.05
2023-03-06T06:46:05.750Z,11.07
2023-03-06T06:48:19.559Z,10.02
2023-03-06T06:50:22.789Z,10.77
2023-03-06T06:52:26.168Z,10.80
2023-03-06T06:54:29.361Z,9.88
2023-03-06T06:56:32.637Z,10.93
2023-03-06T06:58:35.467Z,10.82
2023-03-06T07:00:38.427Z,11.55
2023-03-06T07:02:41.567Z,11.10
2023-03-06T07:05:00.658Z,10.70
2023-03-06T07:07:05.288Z,10.25
2023-03-06T07:09:08.380Z,10.82
2023-03-06T07:11:14.333Z,10.70
2023-03-06T07:13:17.327Z,11.02
2023-03-06T07:15:20.358Z,11.13
2023-03-06T07:17:23.541Z,11.27
2023-03-06T07:19:26.692Z,9.20
2023-03-06T07:21:31.403Z,9.75
2023-03-06T07:23:34.370Z,10.10
2023-03-06T07:25:38.248Z,10.98
2023-03-06T07:27:41.246Z,11.32
2023-03-06T07:29:44.744Z,9.90
2023-03-06T07:31:48.039Z,8.02
2023-03-06T07:33:51.442Z,11.80
2023-03-06T07:35:54.334Z,10.85
2023-03-06T07:37:58.862Z,11.77
2023-03-06T07:40:02.170Z,11.52
2023-03-06T07:42:05.391Z,11.45
2023-03-06T07:44:08.261Z,11.45
2023-03-06T07:46:13.152Z,10.68
2023-03-06T07:48:16.422Z,11.27
2023-03-06T07:50:20.312Z,11.32
2023-03-06T07:52:23.530Z,11.63
2023-03-06T07:54:30.943Z,10.88
2023-03-06T07:56:35.358Z,9.85
2023-03-06T07:58:39.106Z,11.25
2023-03-06T08:00:42.018Z,10.05
2023-03-06T08:02:45.150Z,8.30
2023-03-06T08:04:53.850Z,10.68
2023-03-06T08:06:59.922Z,11.10
2023-03-06T08:09:03.334Z,11.15
2023-03-06T08:11:08.354Z,9.68
2023-03-06T08:13:11.264Z,10.85
2023-03-06T08:15:14.869Z,10.00
2023-03-06T08:17:17.810Z,10.02
2023-03-06T08:19:20.917Z,9.85
2023-03-06T08:21:25.798Z,8.95
2023-03-06T08:23:28.840Z,9.38
2023-03-06T08:25:32.070Z,8.65
2023-03-06T08:27:36.901Z,11.05
2023-03-06T08:29:39.971Z,10.35
2023-03-06T08:31:44.803Z,11.23
2023-03-06T08:33:47.953Z,9.27
2023-03-06T08:35:50.997Z,9.93
2023-03-06T08:37:53.922Z,10.15
2023-03-06T08:39:57.122Z,11.15
2023-03-06T08:42:00.110Z,10.73
2023-03-06T08:44:05.418Z,10.68
2023-03-06T08:46:08.447Z,10.52
2023-03-06T08:48:11.698Z,10.02
2023-03-06T08:50:15.040Z,10.48
2023-03-06T08:52:18.073Z,10.60
2023-03-06T08:54:21.407Z,11.43
2023-03-06T08:56:26.781Z,10.27
2023-03-06T08:58:29.830Z,7.47
2023-03-06T09:00:34.627Z,10.73
2023-03-06T09:02:37.586Z,8.77
2023-03-06T09:04:40.667Z,10.13
2023-03-06T09:06:45.677Z,10.10
2023-03-06T09:08:50.807Z,10.25
2023-03-06T09:10:53.786Z,10.07
2023-03-06T09:12:56.845Z,9.15
2023-03-06T09:14:59.696Z,9.50
2023-03-06T09:17:04.147Z,9.43
2023-03-06T09:19:07.206Z,9.70
2023-03-06T09:21:10.986Z,10.35
2023-03-06T09:23:13.971Z,10.63
2023-03-06T09:25:20.720Z,9.95
2023-03-06T09:27:23.654Z,9.15
2023-03-06T09:29:26.621Z,9.48
2023-03-06T09:31:30.601Z,9.40
2023-03-06T09:33:35.095Z,9.77
2023-03-06T09:35:43.095Z,9.63
2023-03-06T09:37:46.143Z,10.00
2023-03-06T09:39:49.305Z,9.65
2023-03-06T09:41:53.005Z,9.52
2023-03-06T09:44:05.061Z,10.13
2023-03-06T09:46:19.614Z,9.80
2023-03-06T09:48:29.281Z,9.88
2023-03-06T09:50:41.118Z,10.18
2023-03-06T09:52:52.048Z,10.10
2023-03-06T09:54:58.058Z,9.13
2023-03-06T09:57:01.009Z,9.05
2023-03-06T09:59:13.007Z,9.13
2023-03-06T10:01:21.406Z,9.55
2023-03-06T10:03:29.781Z,9.48
2023-03-06T10:05:39.844Z,8.85
2023-03-06T10:07:47.318Z,8.32
2023-03-06T10:09:56.436Z,9.80
2023-03-06T10:12:01.191Z,9.32
2023-03-06T10:14:18.039Z,9.73
2023-03-06T10:16:27.988Z,9.98
2023-03-06T10:18:30.908Z,9.90
2023-03-06T10:20:41.499Z,10.20
2023-03-06T10:23:00.845Z,9.02
2023-03-06T10:25:15.996Z,8.63
2023-03-06T10:27:37.821Z,9.43
2023-03-06T10:30:02.062Z,8.23
2023-03-06T10:32:17.972Z,7.95
2023-03-06T10:34:24.164Z,7.90
2023-03-06T10:36:30.065Z,9.60
2023-03-06T10:38:38.946Z,7.82
2023-03-06T10:40:49.436Z,7.55
2023-03-06T10:43:05.086Z,6.47
2023-03-06T10:45:16.223Z,6.95
2023-03-06T10:47:28.854Z,6.72
2023-03-06T10:49:35.790Z,6.38
2023-03-06T10:51:40.218Z,5.82
2023-03-06T10:53:52.048Z,7.45
2023-03-06T10:55:57.733Z,7.22
2023-03-06T11:00:32.261Z,6.75
2023-03-06T11:02:38.837Z,6.65
2023-03-06T11:04:46.334Z,5.80
2023-03-06T11:07:05.863Z,6.28
2023-03-06T11:09:16.566Z,5.13
2023-03-06T11:11:36.829Z,5.78
2023-03-06T11:13:42.451Z,4.97
2023-03-06T11:15:57.898Z,4.43
2023-03-06T11:18:04.640Z,8.63
2023-03-06T11:20:18.788Z,13.18
2023-03-06T11:22:23.343Z,11.60
2023-03-06T11:24:27.789Z,21.05
2023-03-06T11:26:39.819Z,7.68
2023-03-06T11:28:47.655Z,6.55
2023-03-06T11:30:54.887Z,6.65
2023-03-06T11:33:01.816Z,6.45
2023-03-06T11:35:10.129Z,9.52
2023-03-06T11:37:22.291Z,6.72
2023-03-06T11:39:35.336Z,26.13
2023-03-06T11:41:49.177Z,10.18
2023-03-06T11:44:01.286Z,12.65
2023-03-06T11:46:15.670Z,12.30
2023-03-06T11:48:26.196Z,6.28
2023-03-06T11:50:34.158Z,5.25
2023-03-06T11:52:48.615Z,11.48
2023-03-06T11:54:56.236Z,12.25
2023-03-06T11:57:02.801Z,7.22
2023-03-06T11:59:22.640Z,5.95
2023-03-06T12:01:29.608Z,2.92
2023-03-06T12:03:54.732Z,8.27
2023-03-06T12:06:04.029Z,7.20
2023-03-06T12:08:17.769Z,21.05
2023-03-06T12:10:28.060Z,11.07
2023-03-06T12:13:01.958Z,20.83
2023-03-06T12:15:22.813Z,17.10
2023-03-06T12:17:37.738Z,8.52
2023-03-06T12:19:54.872Z,10.50
2023-03-06T12:22:13.199Z,10.60
2023-03-06T12:24:34.117Z,9.15
2023-03-06T12:26:57.708Z,8.80
2023-03-06T12:29:20.530Z,2.33
2023-03-06T12:31:40.430Z,5.65
2023-03-06T12:33:57.639Z,5.05
2023-03-06T12:36:17.807Z,7.25
2023-03-06T12:38:45.579Z,4.28
2023-03-06T12:41:03.029Z,3.97
2023-03-06T12:43:41.708Z,5.28
2023-03-06T12:45:46.712Z,5.53
2023-03-06T12:47:56.349Z,9.07
2023-03-06T12:50:03.422Z,11.55
2023-03-06T12:52:08.246Z,12.70
2023-03-06T12:54:14.573Z,8.05
2023-03-06T12:58:48.354Z,8.88
2023-03-06T13:01:07.402Z,5.50
2023-03-06T13:03:18.234Z,5.90
2023-03-06T13:05:37.882Z,8.20
2023-03-06T13:07:58.118Z,13.48
2023-03-06T13:10:11.493Z,3.15
2023-03-06T13:12:28.423Z,7.88
2023-03-06T13:14:54.774Z,6.90
2023-03-06T13:17:39.614Z,9.50
2023-03-06T13:19:42.624Z,10.27
2023-03-06T13:22:02.183Z,5.18
2023-03-06T13:24:06.287Z,6.55
2023-03-06T13:26:12.203Z,4.05
2023-03-06T13:28:26.976Z,5.15
2023-03-06T13:30:45.598Z,7.53
2023-03-06T13:32:49.672Z,6.25
2023-03-06T13:34:52.782Z,6.00
2023-03-06T13:37:34.320Z,5.95
2023-03-06T13:40:10.208Z,7.15
2023-03-06T13:42:28.256Z,7.05
2023-03-06T13:44:51.888Z,6.93
2023-03-06T13:47:01.931Z,7.65
2023-03-06T13:49:14.060Z,8.82
2023-03-06T13:51:24.966Z,16.05
2023-03-06T13:54:03.209Z,6.57
2023-03-06T13:56:25.847Z,8.48
2023-03-06T13:58:42.210Z,18.15
2023-03-06T14:01:13.458Z,11.02
2023-03-06T14:03:44.012Z,39.72
2023-03-06T14:05:48.945Z,22.38
2023-03-06T14:08:05.685Z,5.07
2023-03-06T14:10:22.614Z,8.30
2023-03-06T14:12:30.702Z,39.78
2023-03-06T14:14:39.512Z,47.40
2023-03-06T14:16:50.002Z,8.90
2023-03-06T14:18:57.330Z,8.57
2023-03-06T14:21:01.975Z,9.93
2023-03-06T14:23:24.551Z,7.97
2023-03-06T14:25:31.747Z,6.50
2023-03-06T14:27:49.596Z,9.45
2023-03-06T14:30:05.884Z,7.53
2023-03-06T14:34:20.874Z,11.93
2023-03-06T14:36:32.440Z,14.00
2023-03-06T14:38:39.329Z,17.95
2023-03-06T14:40:45.401Z,14.13
2023-03-06T14:42:48.377Z,9.45
2023-03-06T14:45:01.620Z,10.32
2023-03-06T14:47:26.691Z,12.00
2023-03-06T14:49:31.262Z,11.02
2023-03-06T14:51:41.681Z,14.00
2023-03-06T14:53:46.005Z,9.00
2023-03-06T14:55:51.218Z,5.43
2023-03-06T14:57:58.705Z,19.65
2023-03-06T15:00:01.937Z,12.18
2023-03-06T15:02:09.209Z,6.32
2023-03-06T15:04:20.492Z,8.82
2023-03-06T15:06:27.681Z,25.50
2023-03-06T15:08:34.305Z,11.00
2023-03-06T15:10:37.808Z,12.48
2023-03-06T15:12:40.887Z,15.70
2023-03-06T15:14:56.438Z,13.52
2023-03-06T15:17:32.268Z,12.65
2023-03-06T15:19:40.817Z,14.63
2023-03-06T15:21:48.106Z,9.82
2023-03-06T15:23:52.230Z,28.23
2023-03-06T15:26:00.932Z,8.13
2023-03-06T15:28:23.103Z,7.30
2023-03-06T15:30:30.286Z,9.98
2023-03-06T15:32:36.027Z,7.45
2023-03-06T15:34:38.916Z,8.13
2023-03-06T15:36:43.454Z,11.85
2023-03-06T15:38:48.725Z,25.10
2023-03-06T15:40:56.298Z,12.95
2023-03-06T15:43:00.152Z,11.15
2023-03-06T15:45:16.089Z,10.15
2023-03-06T15:47:19.008Z,11.57
2023-03-06T15:49:22.031Z,8.93
2023-03-06T15:51:25.284Z,13.02
2023-03-06T15:53:28.872Z,10.77
2023-03-06T15:55:33.816Z,11.10
2023-03-06T15:57:36.921Z,12.43
2023-03-06T15:59:44.491Z,10.25
2023-03-06T16:01:47.771Z,10.43
2023-03-06T16:03:50.652Z,11.68
2023-03-06T16:05:53.640Z,11.88
2023-03-06T16:07:56.967Z,16.23
2023-03-06T16:09:59.987Z,13.95
2023-03-06T16:12:05.033Z,12.57
2023-03-06T16:14:18.988Z,13.60
2023-03-06T16:16:29.450Z,41.17
2023-03-06T16:18:32.430Z,69.03
2023-03-06T16:20:35.368Z,29.10
2023-03-06T16:22:38.369Z,34.40
2023-03-06T16:24:42.010Z,39.72
2023-03-06T16:26:47.186Z,43.80
2023-03-06T16:28:51.707Z,78.50
2023-03-06T16:30:54.679Z,20.02
2023-03-06T16:32:57.948Z,22.70
2023-03-06T16:35:00.917Z,30.55
2023-03-06T16:37:03.948Z,37.83
2023-03-06T16:39:07.376Z,37.10
2023-03-06T16:41:10.358Z,34.40
2023-03-06T16:43:13.782Z,92.53
2023-03-06T16:45:19.765Z,97.32
2023-03-06T16:47:22.747Z,120.30
2023-03-06T16:49:26.723Z,138.75
2023-03-06T16:51:29.730Z,65.88
2023-03-06T16:53:32.747Z,39.47
2023-03-06T16:55:35.633Z,24.27
2023-03-06T16:57:38.848Z,14.85
2023-03-06T16:59:42.368Z,10.40
2023-03-06T17:01:46.769Z,10.10
2023-03-06T17:03:49.747Z,11.10
2023-03-06T17:05:52.617Z,11.55
2023-03-06T17:07:55.611Z,15.65
2023-03-06T17:09:58.584Z,14.10
2023-03-06T17:12:01.658Z,13.32
2023-03-06T17:14:04.589Z,15.20
2023-03-06T17:16:09.797Z,13.48
2023-03-06T17:18:14.195Z,10.77
2023-03-06T17:20:17.128Z,9.57
2023-03-06T17:22:20.799Z,11.90
2023-03-06T17:24:23.830Z,13.63
2023-03-06T17:26:26.711Z,15.57
2023-03-06T17:28:29.693Z,17.27
2023-03-06T17:30:32.647Z,19.00
2023-03-06T17:32:35.715Z,21.33
2023-03-06T17:34:40.304Z,21.63
2023-03-06T17:36:44.394Z,23.33
2023-03-06T17:38:47.514Z,17.55
2023-03-06T17:40:50.458Z,14.95
2023-03-06T17:42:53.318Z,13.70
2023-03-06T17:44:57.681Z,13.55
2023-03-06T17:47:00.584Z,12.80
2023-03-06T17:49:03.547Z,12.82
2023-03-06T17:51:08.597Z,13.60
2023-03-06T17:53:11.723Z,14.20
2023-03-06T17:55:14.861Z,13.52
2023-03-06T17:57:17.746Z,13.43
2023-03-06T17:59:20.690Z,16.80
2023-03-06T18:01:27.909Z,16.88
2023-03-06T18:03:30.757Z,20.38
2023-03-06T18:05:33.650Z,20.25
2023-03-06T18:07:38.404Z,22.58
2023-03-06T18:09:42.258Z,20.85
2023-03-06T18:11:45.408Z,26.25
2023-03-06T18:13:49.176Z,24.95
2023-03-06T18:15:52.158Z,28.73
2023-03-06T18:17:56.912Z,47.75
2023-03-06T18:20:00.016Z,54.33
2023-03-06T18:22:02.845Z,46.70
2023-03-06T18:24:08.215Z,36.38
2023-03-06T18:26:14.109Z,34.30
2023-03-06T18:28:17.046Z,36.28
2023-03-06T18:30:19.976Z,34.70
2023-03-06T18:32:23.162Z,31.48
2023-03-06T18:34:26.389Z,40.55
2023-03-06T18:36:30.925Z,71.10
2023-03-06T18:38:33.865Z,65.25
2023-03-06T18:40:38.295Z,71.30
2023-03-06T18:42:41.112Z,32.30
2023-03-06T18:44:47.996Z,48.72
2023-03-06T18:46:50.846Z,43.75
2023-03-06T18:48:55.312Z,36.38
2023-03-06T18:51:04.127Z,79.18
2023-03-06T18:53:07.017Z,17.10
2023-03-06T18:55:11.091Z,12.18
2023-03-06T18:57:15.676Z,8.73
2023-03-06T18:59:19.073Z,9.63
2023-03-06T19:01:22.825Z,8.27
2023-03-06T19:03:26.198Z,9.85
2023-03-06T19:05:29.238Z,9.00
2023-03-06T19:07:32.198Z,10.40
2023-03-06T19:09:35.209Z,8.82
2023-03-06T19:11:38.180Z,10.52
2023-03-06T19:13:42.742Z,13.80
2023-03-06T19:15:47.159Z,82.50
2023-03-06T19:17:51.712Z,52.15
2023-03-06T19:19:55.777Z,19.60
2023-03-06T19:21:59.394Z,18.67
2023-03-06T19:24:03.882Z,41.53
2023-03-06T19:26:07.823Z,32.67
2023-03-06T19:28:10.821Z,44.70
2023-03-06T19:30:16.534Z,55.85
2023-03-06T19:32:19.544Z,41.55
2023-03-06T19:34:22.465Z,40.78
2023-03-06T19:36:28.988Z,27.70
2023-03-06T19:38:31.835Z,18.92
2023-03-06T19:40:35.626Z,18.45
2023-03-06T19:42:38.437Z,13.93
2023-03-06T19:44:41.296Z,17.55
2023-03-06T19:46:45.732Z,17.50
2023-03-06T19:48:48.728Z,12.70
2023-03-06T19:50:51.555Z,12.88
2023-03-06T19:52:54.537Z,11.43
2023-03-06T19:54:57.325Z,25.05
2023-03-06T19:57:00.373Z,20.23
2023-03-06T19:59:03.850Z,27.08
2023-03-06T20:01:08.130Z,28.55
2023-03-06T20:03:12.428Z,26.73
2023-03-06T20:05:15.580Z,24.08
2023-03-06T20:07:18.439Z,20.08
2023-03-06T20:09:22.190Z,18.30
2023-03-06T20:11:27.244Z,17.90
2023-03-06T20:13:30.795Z,18.00
2023-03-06T20:15:35.374Z,17.65
2023-03-06T20:17:40.874Z,18.73
2023-03-06T20:21:48.171Z,17.13
2023-03-06T20:23:53.129Z,16.63
2023-03-06T20:25:56.066Z,17.95
2023-03-06T20:27:58.966Z,17.55
2023-03-06T20:30:02.464Z,17.15
2023-03-06T20:32:06.584Z,15.40
2023-03-06T20:34:12.126Z,15.95
2023-03-06T20:36:18.999Z,17.52
2023-03-06T20:38:22.492Z,15.40
2023-03-06T20:40:25.828Z,15.02
2023-03-06T20:42:29.201Z,14.07
2023-03-06T20:44:33.966Z,13.98
2023-03-06T20:46:37.848Z,15.57
2023-03-06T20:48:42.268Z,13.65
2023-03-06T20:50:46.658Z,14.52
2023-03-06T20:52:54.325Z,13.57
2023-03-06T20:54:57.414Z,13.13
2023-03-06T20:57:00.185Z,54.38
2023-03-06T20:59:03.692Z,64.63
2023-03-06T21:01:06.675Z,55.33
2023-03-06T21:03:09.616Z,43.35
2023-03-06T21:05:12.581Z,35.80
2023-03-06T21:07:16.627Z,35.92
2023-03-06T21:09:20.937Z,28.98
2023-03-06T21:11:24.211Z,32.28
2023-03-06T21:13:26.979Z,31.08
2023-03-06T21:15:31.041Z,25.83
2023-03-06T21:17:34.884Z,27.27
2023-03-06T21:19:37.836Z,28.88
2023-03-06T21:21:40.734Z,32.60
2023-03-06T21:23:43.741Z,26.92
2023-03-06T21:25:52.559Z,32.85
2023-03-06T21:27:55.827Z,34.30
2023-03-06T21:29:58.907Z,32.45
2023-03-06T21:32:01.853Z,33.30
2023-03-06T21:34:05.580Z,31.30
2023-03-06T21:36:09.338Z,17.00
2023-03-06T21:38:12.664Z,24.58
2023-03-06T21:40:15.674Z,17.90
2023-03-06T21:42:20.113Z,25.83
2023-03-06T21:44:23.077Z,18.95
2023-03-06T21:46:26.837Z,13.85
2023-03-06T21:48:30.133Z,14.73
2023-03-06T21:50:33.014Z,18.45
2023-03-06T21:52:35.984Z,19.45
2023-03-06T21:54:39.025Z,18.95
2023-03-06T21:56:41.973Z,14.90
2023-03-06T21:58:46.728Z,13.48
2023-03-06T22:00:49.927Z,11.48
2023-03-06T22:02:53.281Z,11.23
2023-03-06T22:04:56.272Z,11.23
2023-03-06T22:06:59.182Z,10.13
2023-03-06T22:09:02.204Z,10.13
2023-03-06T22:11:10.122Z,10.27
2023-03-06T22:13:13.094Z,11.15
2023-03-06T22:15:17.706Z,10.77
2023-03-06T22:17:20.703Z,10.10
2023-03-06T22:19:23.842Z,11.02
2023-03-06T22:21:26.860Z,10.55
2023-03-06T22:23:29.659Z,10.57
2023-03-06T22:25:34.853Z,10.65
2023-03-06T22:27:37.670Z,10.35
2023-03-06T22:29:40.635Z,10.73
2023-03-06T22:31:45.090Z,11.25
2023-03-06T22:33:51.247Z,10.85
2023-03-06T22:35:59.508Z,10.93
2023-03-06T22:38:04.266Z,11.20
2023-03-06T22:40:08.129Z,11.47
2023-03-06T22:42:11.025Z,12.10
2023-03-06T22:44:16.829Z,12.43
2023-03-06T22:46:19.897Z,12.10
2023-03-06T22:48:24.236Z,12.07
2023-03-06T22:50:27.276Z,12.18
2023-03-06T22:52:30.082Z,11.77
2023-03-06T22:54:33.186Z,11.88
2023-03-06T22:56:36.638Z,12.10
2023-03-06T22:58:40.615Z,11.40
2023-03-06T23:00:43.545Z,10.50
2023-03-06T23:02:46.846Z,11.82
2023-03-06T23:04:54.537Z,12.45
2023-03-06T23:06:57.739Z,12.25
2023-03-06T23:09:03.722Z,12.02
2023-03-06T23:11:09.367Z,11.90
2023-03-06T23:13:30.921Z,11.85
2023-03-06T23:15:52.039Z,10.55
2023-03-06T23:18:13.287Z,12.10
2023-03-06T23:20:36.210Z,12.05
2023-03-06T23:22:57.836Z,12.60
2023-03-06T23:25:19.140Z,12.45
2023-03-06T23:27:22.231Z,12.55
2023-03-06T23:29:25.551Z,11.98
2023-03-06T23:31:30.012Z,11.35
2023-03-06T23:33:33.006Z,11.80
2023-03-06T23:35:39.485Z,11.13
2023-03-06T23:37:42.607Z,11.63
2023-03-06T23:39:45.661Z,11.73
2023-03-06T23:41:48.605Z,11.35
2023-03-06T23:43:54.062Z,11.98
2023-03-06T23:45:58.098Z,9.48
2023-03-06T23:48:00.998Z,10.05
2023-03-06T23:50:04.104Z,9.98
2023-03-06T23:52:08.632Z,10.85
2023-03-06T23:54:11.541Z,10.13
2023-03-06T23:56:14.935Z,10.20
2023-03-06T23:58:19.629Z,10.82
